createdAt,value
2019-01-24T00:01:01.240Z,23.90
2019-01-24T00:03:28.932Z,25.27
2019-01-24T00:05:56.884Z,24.53
2019-01-24T00:08:24.583Z,23.10
2019-01-24T00:10:52.898Z,25.13
2019-01-24T00:13:21.357Z,23.70
2019-01-24T00:15:48.977Z,23.90
2019-01-24T00:18:16.435Z,24.47
2019-01-24T00:20:44.318Z,25.50
2019-01-24T00:23:11.930Z,25.00
2019-01-24T00:25:39.385Z,23.13
2019-01-24T00:28:07.266Z,21.73
2019-01-24T00:30:34.964Z,22.97
2019-01-24T00:33:02.840Z,24.13
2019-01-24T00:35:30.917Z,22.60
2019-01-24T00:37:58.070Z,23.10
2019-01-24T00:40:25.315Z,22.47
2019-01-24T00:42:52.811Z,22.63
2019-01-24T00:45:20.302Z,19.70
2019-01-24T00:47:48.382Z,19.63
2019-01-24T00:50:16.241Z,21.03
2019-01-24T00:52:44.054Z,21.07
2019-01-24T00:55:13.018Z,21.40
2019-01-24T00:57:40.544Z,21.57
2019-01-24T01:00:13.931Z,21.93
2019-01-24T01:02:41.450Z,21.53
2019-01-24T01:05:11.221Z,23.83
2019-01-24T01:07:39.422Z,24.40
2019-01-24T01:10:07.643Z,24.50
2019-01-24T01:12:35.790Z,24.47
2019-01-24T01:15:07.038Z,24.60
2019-01-24T01:17:34.744Z,25.17
2019-01-24T01:20:03.556Z,23.63
2019-01-24T01:22:31.459Z,23.93
2019-01-24T01:24:58.820Z,25.27
2019-01-24T01:27:26.702Z,23.37
2019-01-24T01:29:54.329Z,23.63
2019-01-24T01:32:21.979Z,24.53
2019-01-24T01:34:49.284Z,22.67
2019-01-24T01:37:16.774Z,23.40
2019-01-24T01:39:44.364Z,24.07
2019-01-24T01:42:11.831Z,23.37
2019-01-24T01:44:39.468Z,23.43
2019-01-24T01:47:07.196Z,22.97
2019-01-24T01:49:34.457Z,22.03
2019-01-24T01:52:02.347Z,23.23
2019-01-24T01:54:29.999Z,22.57
2019-01-24T01:56:57.586Z,23.50
2019-01-24T01:59:28.764Z,22.70
2019-01-24T02:01:56.296Z,24.30
2019-01-24T02:04:23.633Z,22.90
2019-01-24T02:06:51.511Z,23.97
2019-01-24T02:09:19.235Z,24.90
2019-01-24T02:11:47.102Z,25.17
2019-01-24T02:14:14.643Z,25.13
2019-01-24T02:16:42.163Z,26.00
2019-01-24T02:19:10.419Z,29.53
2019-01-24T02:21:37.807Z,29.43
2019-01-24T02:24:05.277Z,29.20
2019-01-24T02:26:33.114Z,29.97
2019-01-24T02:29:00.407Z,29.90
2019-01-24T02:31:27.786Z,31.47
2019-01-24T02:33:55.494Z,30.40
2019-01-24T02:36:23.523Z,31.57
2019-01-24T02:38:51.448Z,31.20
2019-01-24T02:41:18.920Z,33.30
2019-01-24T02:43:46.510Z,34.13
2019-01-24T02:46:14.361Z,34.93
2019-01-24T02:48:41.588Z,32.60
2019-01-24T02:51:08.951Z,32.83
2019-01-24T02:53:36.539Z,35.20
2019-01-24T02:56:04.406Z,33.30
2019-01-24T02:58:32.250Z,34.73
2019-01-24T03:00:59.610Z,35.40
2019-01-24T03:03:27.653Z,36.43
2019-01-24T03:05:55.570Z,35.67
2019-01-24T03:08:23.150Z,36.20
2019-01-24T03:10:51.087Z,36.03
2019-01-24T03:13:19.117Z,33.33
2019-01-24T03:15:46.764Z,35.33
2019-01-24T03:18:14.787Z,33.50
2019-01-24T03:20:42.208Z,34.13
2019-01-24T03:23:14.947Z,32.53
2019-01-24T03:25:42.600Z,34.57
2019-01-24T03:28:10.509Z,32.37
2019-01-24T03:30:38.389Z,35.40
2019-01-24T03:33:05.876Z,34.77
2019-01-24T03:35:33.292Z,32.67
2019-01-24T03:38:00.533Z,33.67
2019-01-24T03:40:28.289Z,34.53
2019-01-24T03:42:55.681Z,34.40
2019-01-24T03:45:23.060Z,33.33
2019-01-24T03:47:50.639Z,34.43
2019-01-24T03:50:20.658Z,35.10
2019-01-24T03:52:49.181Z,32.67
2019-01-24T03:55:18.817Z,32.20
2019-01-24T03:57:46.395Z,33.77
2019-01-24T04:00:20.245Z,32.50
2019-01-24T04:02:48.123Z,34.30
2019-01-24T04:05:16.029Z,34.63
2019-01-24T04:07:43.766Z,35.07
2019-01-24T04:10:14.770Z,33.87
2019-01-24T04:12:43.184Z,33.70
2019-01-24T04:15:13.829Z,33.77
2019-01-24T04:17:41.526Z,34.83
2019-01-24T04:20:10.319Z,33.90
2019-01-24T04:22:38.358Z,34.37
2019-01-24T04:25:06.317Z,32.20
2019-01-24T04:27:33.725Z,34.90
2019-01-24T04:30:01.542Z,34.70
2019-01-24T04:32:29.533Z,34.33
2019-01-24T04:34:56.706Z,35.33
2019-01-24T04:37:24.610Z,34.40
2019-01-24T04:39:52.040Z,35.07
2019-01-24T04:42:19.544Z,35.27
2019-01-24T04:44:47.505Z,33.30
2019-01-24T04:47:15.020Z,34.50
2019-01-24T04:49:42.370Z,35.20
2019-01-24T04:52:10.151Z,36.10
2019-01-24T04:54:38.344Z,35.40
2019-01-24T04:57:06.208Z,35.83
2019-01-24T04:59:33.500Z,34.33
2019-01-24T05:02:01.042Z,34.13
2019-01-24T05:04:29.358Z,33.13
2019-01-24T05:06:56.907Z,33.87
2019-01-24T05:09:24.049Z,32.03
2019-01-24T05:11:51.764Z,34.33
2019-01-24T05:14:19.419Z,33.60
2019-01-24T05:16:46.825Z,34.37
2019-01-24T05:19:14.077Z,32.00
2019-01-24T05:21:41.647Z,34.13
2019-01-24T05:24:09.325Z,34.43
2019-01-24T05:26:36.905Z,34.50
2019-01-24T05:29:04.763Z,32.57
2019-01-24T05:31:32.393Z,32.70
2019-01-24T05:34:00.049Z,32.60
2019-01-24T05:36:27.908Z,33.90
2019-01-24T05:38:55.726Z,32.97
2019-01-24T05:41:23.393Z,33.83
2019-01-24T05:43:51.448Z,32.17
2019-01-24T05:46:19.131Z,33.47
2019-01-24T05:48:46.907Z,34.77
2019-01-24T05:51:15.227Z,34.43
2019-01-24T05:53:43.288Z,34.87
2019-01-24T05:56:10.901Z,33.40
2019-01-24T05:58:38.364Z,33.93
2019-01-24T06:01:07.560Z,34.10
2019-01-24T06:03:35.300Z,32.23
2019-01-24T06:06:02.947Z,32.47
2019-01-24T06:08:30.596Z,35.07
2019-01-24T06:10:58.518Z,35.20
2019-01-24T06:13:26.077Z,45.73
2019-01-24T06:15:53.691Z,36.33
2019-01-24T06:18:21.666Z,34.57
2019-01-24T06:20:49.626Z,33.97
2019-01-24T06:23:17.703Z,32.77
2019-01-24T06:25:44.960Z,30.63
2019-01-24T06:28:12.607Z,33.50
2019-01-24T06:30:40.251Z,33.50
2019-01-24T06:33:07.787Z,31.73
2019-01-24T06:35:35.080Z,33.43
2019-01-24T06:38:03.135Z,32.20
2019-01-24T06:40:30.795Z,33.03
2019-01-24T06:42:58.601Z,33.43
2019-01-24T06:45:25.977Z,29.67
2019-01-24T06:47:54.039Z,28.67
2019-01-24T06:50:22.077Z,36.07
2019-01-24T06:52:49.794Z,32.60
2019-01-24T06:55:24.263Z,32.87
2019-01-24T06:57:55.194Z,33.63
2019-01-24T07:00:23.074Z,34.83
2019-01-24T07:02:50.549Z,34.77
2019-01-24T07:05:18.834Z,36.10
2019-01-24T07:07:46.768Z,35.67
2019-01-24T07:10:16.941Z,34.00
2019-01-24T07:12:44.719Z,34.43
2019-01-24T07:15:18.562Z,34.83
2019-01-24T07:17:46.249Z,35.20
2019-01-24T07:20:14.910Z,34.07
2019-01-24T07:22:42.615Z,33.60
2019-01-24T07:25:15.153Z,34.33
2019-01-24T07:27:43.089Z,34.10
2019-01-24T07:30:12.570Z,34.57
2019-01-24T07:32:40.004Z,33.70
2019-01-24T07:35:10.544Z,34.17
2019-01-24T07:37:38.411Z,37.77
2019-01-24T07:40:07.880Z,36.20
2019-01-24T07:42:35.589Z,34.27
2019-01-24T07:45:06.583Z,35.03
2019-01-24T07:47:34.083Z,33.90
2019-01-24T07:50:01.507Z,35.00
2019-01-24T07:52:29.286Z,34.60
2019-01-24T07:54:57.193Z,35.00
2019-01-24T07:57:24.622Z,34.57
2019-01-24T07:59:52.656Z,33.33
2019-01-24T08:02:20.375Z,36.67
2019-01-24T08:04:47.792Z,31.80
2019-01-24T08:07:15.769Z,35.60
2019-01-24T08:09:43.107Z,34.27
2019-01-24T08:12:11.045Z,33.07
2019-01-24T08:14:38.778Z,33.90
2019-01-24T08:17:06.396Z,34.73
2019-01-24T08:19:33.800Z,34.77
2019-01-24T08:22:01.528Z,34.00
2019-01-24T08:24:32.422Z,33.63
2019-01-24T08:26:59.801Z,36.93
2019-01-24T08:29:26.973Z,35.23
2019-01-24T08:31:54.607Z,33.87
2019-01-24T08:34:22.306Z,33.03
2019-01-24T08:36:50.042Z,35.97
2019-01-24T08:39:18.553Z,34.90
2019-01-24T08:41:45.644Z,36.67
2019-01-24T08:44:13.250Z,34.27
2019-01-24T08:46:41.290Z,34.30
2019-01-24T08:49:08.930Z,37.07
2019-01-24T08:51:36.720Z,35.07
2019-01-24T08:54:04.275Z,36.83
2019-01-24T08:56:31.890Z,36.63
2019-01-24T08:58:59.513Z,35.53
2019-01-24T09:01:27.142Z,35.97
2019-01-24T09:03:54.918Z,36.73
2019-01-24T09:06:22.870Z,33.70
2019-01-24T09:08:50.562Z,36.57
2019-01-24T09:11:18.406Z,37.23
2019-01-24T09:13:46.147Z,37.60
2019-01-24T09:16:14.288Z,37.07
2019-01-24T09:18:41.779Z,39.03
2019-01-24T09:21:09.335Z,39.00
2019-01-24T09:23:36.985Z,39.07
2019-01-24T09:26:05.683Z,39.00
2019-01-24T09:28:33.761Z,38.80
2019-01-24T09:31:01.432Z,39.93
2019-01-24T09:33:28.966Z,37.80
2019-01-24T09:35:56.572Z,36.87
2019-01-24T09:38:24.560Z,36.93
2019-01-24T09:40:51.809Z,38.33
2019-01-24T09:43:19.358Z,39.87
2019-01-24T09:45:46.738Z,40.20
2019-01-24T09:48:14.657Z,40.33
2019-01-24T09:50:42.261Z,40.50
2019-01-24T09:53:10.140Z,39.17
2019-01-24T09:55:37.913Z,37.00
2019-01-24T09:58:05.448Z,40.40
2019-01-24T10:00:35.336Z,37.73
2019-01-24T10:03:03.686Z,37.50
2019-01-24T10:05:31.359Z,41.67
2019-01-24T10:07:58.869Z,39.83
2019-01-24T10:10:31.094Z,39.87
2019-01-24T10:12:58.799Z,39.67
2019-01-24T10:15:26.749Z,39.93
2019-01-24T10:17:54.736Z,38.00
2019-01-24T10:20:24.260Z,39.97
2019-01-24T10:22:51.937Z,38.23
2019-01-24T10:25:29.298Z,38.07
2019-01-24T10:27:58.069Z,38.33
2019-01-24T10:30:26.176Z,37.00
2019-01-24T10:32:54.109Z,37.40
2019-01-24T10:35:21.719Z,39.77
2019-01-24T10:37:49.225Z,41.63
2019-01-24T10:40:23.246Z,36.47
2019-01-24T10:42:50.846Z,37.30
2019-01-24T10:45:19.696Z,36.93
2019-01-24T10:47:48.780Z,37.17
2019-01-24T10:50:17.441Z,35.87
2019-01-24T10:52:45.277Z,36.93
2019-01-24T10:55:16.525Z,37.30
2019-01-24T10:57:44.559Z,38.30
2019-01-24T11:00:22.558Z,39.93
2019-01-24T11:02:50.582Z,37.90
2019-01-24T11:05:18.350Z,39.03
2019-01-24T11:07:46.090Z,42.03
2019-01-24T11:10:16.007Z,40.43
2019-01-24T11:12:43.515Z,39.63
2019-01-24T11:15:17.802Z,39.80
2019-01-24T11:17:45.649Z,38.00
2019-01-24T11:20:14.416Z,38.23
2019-01-24T11:22:42.464Z,38.87
2019-01-24T11:25:16.320Z,38.93
2019-01-24T11:27:44.229Z,39.53
2019-01-24T11:30:16.332Z,38.87
2019-01-24T11:32:43.699Z,38.40
2019-01-24T11:35:13.566Z,36.67
2019-01-24T11:37:41.243Z,39.53
2019-01-24T11:40:11.838Z,36.93
2019-01-24T11:42:39.820Z,36.87
2019-01-24T11:45:09.974Z,36.07
2019-01-24T11:47:37.366Z,35.53
2019-01-24T11:50:09.066Z,36.50
2019-01-24T11:52:36.500Z,35.53
2019-01-24T11:55:04.943Z,36.70
2019-01-24T11:57:32.251Z,35.10
2019-01-24T12:00:00.223Z,35.10
2019-01-24T12:02:28.340Z,34.63
2019-01-24T12:04:56.134Z,34.70
2019-01-24T12:07:24.082Z,36.00
2019-01-24T12:09:51.502Z,35.83
2019-01-24T12:12:19.575Z,36.47
2019-01-24T12:14:47.484Z,36.47
2019-01-24T12:17:15.825Z,36.00
2019-01-24T12:19:43.075Z,37.83
2019-01-24T12:22:10.816Z,36.73
2019-01-24T12:24:38.053Z,36.13
2019-01-24T12:27:05.874Z,36.30
2019-01-24T12:29:33.115Z,35.90
2019-01-24T12:32:00.961Z,36.67
2019-01-24T12:34:28.628Z,36.77
2019-01-24T12:36:56.368Z,36.77
2019-01-24T12:39:23.633Z,35.17
2019-01-24T12:41:51.365Z,34.03
2019-01-24T12:44:18.933Z,36.73
2019-01-24T12:46:46.686Z,37.27
2019-01-24T12:49:14.096Z,36.70
2019-01-24T12:51:41.257Z,35.90
2019-01-24T12:54:08.636Z,37.30
2019-01-24T12:56:36.282Z,34.27
2019-01-24T12:59:04.179Z,35.50
2019-01-24T13:01:31.932Z,35.93
2019-01-24T13:03:59.265Z,35.83
2019-01-24T13:06:27.387Z,35.80
2019-01-24T13:08:54.850Z,35.17
2019-01-24T13:11:22.920Z,35.70
2019-01-24T13:13:50.231Z,36.63
2019-01-24T13:16:17.649Z,34.77
2019-01-24T13:18:45.323Z,34.90
2019-01-24T13:21:12.999Z,33.97
2019-01-24T13:23:40.307Z,35.73
2019-01-24T13:26:07.709Z,34.07
2019-01-24T13:28:35.291Z,34.47
2019-01-24T13:31:03.354Z,34.27
2019-01-24T13:33:30.974Z,34.30
2019-01-24T13:35:58.383Z,35.50
2019-01-24T13:38:26.408Z,34.87
2019-01-24T13:40:54.421Z,35.43
2019-01-24T13:43:21.793Z,35.03
2019-01-24T13:45:49.264Z,35.20
2019-01-24T13:48:16.613Z,39.90
2019-01-24T13:50:45.104Z,44.00
2019-01-24T13:53:12.867Z,39.03
2019-01-24T13:55:40.922Z,35.53
2019-01-24T13:58:08.875Z,37.13
2019-01-24T14:00:38.916Z,34.23
2019-01-24T14:03:51.128Z,34.60
2019-01-24T14:06:25.870Z,35.73
2019-01-24T14:08:59.282Z,35.17
2019-01-24T14:11:33.409Z,33.97
2019-01-24T14:14:07.672Z,31.60
2019-01-24T14:16:35.199Z,36.13
2019-01-24T14:19:03.015Z,35.77
2019-01-24T14:21:31.216Z,35.63
2019-01-24T14:23:59.636Z,34.80
2019-01-24T14:26:27.449Z,34.33
2019-01-24T14:28:54.737Z,34.53
2019-01-24T14:31:22.478Z,34.83
2019-01-24T14:33:49.871Z,34.13
2019-01-24T14:36:17.384Z,34.80
2019-01-24T14:38:45.205Z,35.93
2019-01-24T14:41:12.501Z,34.47
2019-01-24T14:43:40.686Z,36.17
2019-01-24T14:46:08.015Z,35.67
2019-01-24T14:48:39.008Z,34.70
2019-01-24T14:51:06.288Z,33.27
2019-01-24T14:53:33.590Z,37.77
2019-01-24T14:56:01.406Z,37.80
2019-01-24T14:58:28.885Z,36.77
2019-01-24T15:01:13.774Z,36.83
2019-01-24T15:03:41.106Z,36.70
2019-01-24T15:06:08.382Z,33.97
2019-01-24T15:08:35.756Z,34.73
2019-01-24T15:11:03.818Z,37.83
2019-01-24T15:13:31.047Z,36.90
2019-01-24T15:15:58.302Z,35.27
2019-01-24T15:18:25.705Z,36.03
2019-01-24T15:20:53.382Z,35.37
2019-01-24T15:23:20.965Z,35.27
2019-01-24T15:25:48.486Z,36.30
2019-01-24T15:28:16.233Z,35.87
2019-01-24T15:30:47.787Z,36.53
2019-01-24T15:33:15.618Z,34.40
2019-01-24T15:35:43.044Z,33.97
2019-01-24T15:38:10.727Z,34.70
2019-01-24T15:40:38.645Z,33.90
2019-01-24T15:43:06.597Z,34.10
2019-01-24T15:45:34.401Z,34.17
2019-01-24T15:48:01.802Z,35.60
2019-01-24T15:50:29.332Z,35.87
2019-01-24T15:52:57.146Z,35.03
2019-01-24T15:55:24.976Z,37.23
2019-01-24T15:57:53.110Z,34.90
2019-01-24T16:00:24.014Z,35.90
2019-01-24T16:02:51.390Z,36.97
2019-01-24T16:05:19.645Z,35.03
2019-01-24T16:07:47.784Z,37.80
2019-01-24T16:10:17.610Z,38.07
2019-01-24T16:12:45.234Z,37.60
2019-01-24T16:15:16.988Z,34.80
2019-01-24T16:17:44.783Z,34.57
2019-01-24T16:20:16.229Z,34.10
2019-01-24T16:22:44.684Z,38.27
2019-01-24T16:25:14.079Z,36.20
2019-01-24T16:27:41.662Z,33.73
2019-01-24T16:30:17.207Z,36.57
2019-01-24T16:32:44.622Z,35.80
2019-01-24T16:35:13.683Z,33.63
2019-01-24T16:37:40.998Z,35.67
2019-01-24T16:40:10.476Z,36.00
2019-01-24T16:42:37.979Z,34.73
2019-01-24T16:45:09.706Z,37.00
2019-01-24T16:47:38.089Z,35.00
2019-01-24T16:50:08.552Z,35.13
2019-01-24T16:52:36.151Z,34.73
2019-01-24T16:55:05.637Z,34.07
2019-01-24T16:57:33.353Z,33.13
2019-01-24T17:00:00.982Z,37.57
2019-01-24T17:02:28.630Z,37.97
2019-01-24T17:04:56.367Z,35.03
2019-01-24T17:07:24.588Z,35.63
2019-01-24T17:09:52.371Z,36.23
2019-01-24T17:12:20.014Z,35.03
2019-01-24T17:14:47.398Z,43.47
2019-01-24T17:17:15.158Z,33.67
2019-01-24T17:19:43.029Z,34.37
2019-01-24T17:22:10.445Z,34.10
2019-01-24T17:24:38.930Z,34.63
2019-01-24T17:27:07.002Z,34.60
2019-01-24T17:29:34.802Z,33.57
2019-01-24T17:32:02.317Z,31.93
2019-01-24T17:34:29.952Z,33.93
2019-01-24T17:36:57.607Z,35.97
2019-01-24T17:39:25.714Z,36.27
2019-01-24T17:41:54.003Z,34.63
2019-01-24T17:44:21.864Z,38.83
2019-01-24T17:46:49.585Z,38.53
2019-01-24T17:49:17.774Z,37.40
2019-01-24T17:51:45.415Z,37.70
2019-01-24T17:54:12.738Z,36.70
2019-01-24T17:56:40.151Z,39.07
2019-01-24T17:59:07.759Z,40.83
2019-01-24T18:01:35.413Z,50.83
2019-01-24T18:04:03.531Z,42.50
2019-01-24T18:06:31.410Z,39.07
2019-01-24T18:08:59.312Z,40.17
2019-01-24T18:11:26.950Z,40.10
2019-01-24T18:13:54.515Z,39.83
2019-01-24T18:16:22.178Z,41.20
2019-01-24T18:18:50.468Z,40.00
2019-01-24T18:21:18.349Z,40.23
2019-01-24T18:23:46.076Z,38.80
2019-01-24T18:26:13.384Z,39.23
2019-01-24T18:28:40.757Z,39.07
2019-01-24T18:31:08.634Z,39.37
2019-01-24T18:33:36.379Z,39.13
2019-01-24T18:36:04.375Z,36.00
2019-01-24T18:38:38.365Z,38.10
2019-01-24T18:41:08.430Z,38.87
2019-01-24T18:43:31.930Z,38.50
2019-01-24T18:46:01.267Z,40.07
2019-01-24T18:48:29.459Z,37.37
2019-01-24T18:50:57.080Z,39.03
2019-01-24T18:53:24.781Z,38.43
2019-01-24T18:55:52.843Z,37.37
2019-01-24T18:58:20.702Z,36.97
2019-01-24T19:00:48.172Z,38.30
2019-01-24T19:03:15.914Z,36.93
2019-01-24T19:05:44.547Z,38.40
2019-01-24T19:08:12.132Z,40.27
2019-01-24T19:10:39.633Z,39.53
2019-01-24T19:13:08.913Z,38.43
2019-01-24T19:15:37.921Z,39.10
2019-01-24T19:18:09.809Z,37.87
2019-01-24T19:20:37.156Z,40.47
2019-01-24T19:23:05.238Z,39.23
2019-01-24T19:25:33.265Z,39.93
2019-01-24T19:28:00.916Z,39.30
2019-01-24T19:30:30.737Z,38.50
2019-01-24T19:32:58.998Z,40.13
2019-01-24T19:35:26.807Z,38.00
2019-01-24T19:37:54.569Z,38.47
2019-01-24T19:40:23.425Z,39.60
2019-01-24T19:42:50.779Z,41.87
2019-01-24T19:45:20.746Z,40.40
2019-01-24T19:47:48.875Z,39.90
2019-01-24T19:50:25.188Z,60.13
2019-01-24T19:52:52.695Z,38.50
2019-01-24T19:55:20.206Z,39.20
2019-01-24T19:57:48.031Z,40.90
2019-01-24T20:00:30.352Z,37.50
2019-01-24T20:02:58.580Z,40.67
2019-01-24T20:05:26.367Z,39.97
2019-01-24T20:07:54.413Z,43.43
2019-01-24T20:10:24.818Z,39.17
2019-01-24T20:12:52.230Z,37.30
2019-01-24T20:15:22.935Z,38.90
2019-01-24T20:17:50.751Z,37.90
2019-01-24T20:20:19.144Z,38.33
2019-01-24T20:22:49.015Z,39.33
2019-01-24T20:25:18.845Z,37.27
2019-01-24T20:27:46.358Z,39.27
2019-01-24T20:30:18.135Z,39.00
2019-01-24T20:32:46.708Z,40.47
2019-01-24T20:35:18.173Z,38.70
2019-01-24T20:37:48.190Z,40.23
2019-01-24T20:40:15.732Z,37.53
2019-01-24T20:42:43.704Z,38.10
2019-01-24T20:45:11.522Z,38.30
2019-01-24T20:47:39.390Z,37.90
2019-01-24T20:50:09.032Z,38.70
2019-01-24T20:52:37.014Z,39.93
2019-01-24T20:55:06.511Z,39.30
2019-01-24T20:57:33.826Z,40.37
2019-01-24T21:00:01.635Z,41.60
2019-01-24T21:02:29.254Z,41.00
2019-01-24T21:04:56.963Z,40.03
2019-01-24T21:07:24.698Z,39.83
2019-01-24T21:09:51.983Z,41.97
2019-01-24T21:12:19.625Z,40.90
2019-01-24T21:14:47.245Z,43.00
2019-01-24T21:17:14.681Z,41.60
2019-01-24T21:19:43.803Z,43.27
2019-01-24T21:22:11.285Z,43.73
2019-01-24T21:24:38.810Z,43.60
2019-01-24T21:27:06.485Z,45.23
2019-01-24T21:29:34.221Z,41.47
2019-01-24T21:32:01.494Z,40.60
2019-01-24T21:34:29.898Z,40.23
2019-01-24T21:36:57.503Z,40.70
2019-01-24T21:39:24.869Z,42.90
2019-01-24T21:41:52.586Z,40.43
2019-01-24T21:44:20.251Z,41.13
2019-01-24T21:46:48.034Z,39.83
2019-01-24T21:49:15.555Z,41.33
2019-01-24T21:51:43.504Z,41.03
2019-01-24T21:54:11.302Z,40.73
2019-01-24T21:56:38.558Z,40.07
2019-01-24T21:59:06.083Z,39.90
2019-01-24T22:01:33.760Z,42.13
2019-01-24T22:04:01.129Z,39.17
2019-01-24T22:06:28.501Z,42.13
2019-01-24T22:08:55.727Z,41.43
2019-01-24T22:11:23.099Z,42.07
2019-01-24T22:13:50.806Z,40.53
2019-01-24T22:16:18.299Z,42.37
2019-01-24T22:18:45.997Z,39.87
2019-01-24T22:21:13.751Z,37.43
2019-01-24T22:23:44.812Z,38.50
2019-01-24T22:26:12.646Z,39.40
2019-01-24T22:28:40.164Z,38.43
2019-01-24T22:31:07.641Z,39.90
2019-01-24T22:33:36.188Z,38.70
2019-01-24T22:36:03.912Z,39.73
2019-01-24T22:38:31.302Z,40.30
2019-01-24T22:40:58.549Z,40.33
2019-01-24T22:43:26.309Z,39.70
2019-01-24T22:45:53.755Z,40.10
2019-01-24T22:48:21.637Z,37.97
2019-01-24T22:50:49.324Z,38.20
2019-01-24T22:53:16.949Z,38.57
2019-01-24T22:55:44.631Z,37.53
2019-01-24T22:58:12.011Z,40.07
2019-01-24T23:01:10.677Z,39.87
2019-01-24T23:03:45.234Z,38.23
2019-01-24T23:06:12.929Z,38.47
2019-01-24T23:08:40.054Z,38.77
2019-01-24T23:11:07.630Z,39.00
2019-01-24T23:13:35.115Z,40.10
2019-01-24T23:16:03.538Z,40.80
2019-01-24T23:18:30.898Z,40.33
2019-01-24T23:20:58.742Z,40.90
2019-01-24T23:23:26.344Z,39.47
2019-01-24T23:25:54.244Z,41.10
2019-01-24T23:28:21.610Z,39.60
2019-01-24T23:30:49.283Z,42.60
2019-01-24T23:33:16.955Z,42.17
2019-01-24T23:35:44.298Z,39.27
2019-01-24T23:38:12.505Z,39.90
2019-01-24T23:40:39.755Z,41.10
2019-01-24T23:43:07.626Z,39.87
2019-01-24T23:45:34.962Z,41.63
2019-01-24T23:48:02.708Z,41.00
2019-01-24T23:50:30.178Z,38.87
2019-01-24T23:52:57.537Z,40.83
2019-01-24T23:55:25.038Z,40.70
2019-01-24T23:57:52.561Z,40.67
